Time;durP1;ratioP1;P1;durP2;ratioP2;P2;SDS_P1;SDS_P2;PMS_P1;PMS_P2;Temp;Humidity;BMP_temperature;BMP_pressure;BME280_temperature;BME280_humidity;BME280_pressure;Samples;Min_cycle;Max_cycle;Signal;HPM_P1;HPM_P2
2022/10/26 18:46:01;;;;;;;12.10;6.15;;;;;;;14.32;59.96;100487.81;4516654;31;259727;-95
2022/10/26 18:48:26;;;;;;;10.95;6.80;;;;;;;14.32;59.96;100487.81;4488560;31;20471;-96
2022/10/26 18:50:52;;;;;;;11.25;6.32;;;;;;;14.54;59.97;100476.59;4490683;31;20109;-94
2022/10/26 18:53:17;;;;;;;9.63;5.62;;;;;;;14.92;59.99;100476.03;4484656;32;20084;-93
2022/10/26 18:55:43;;;;;;;13.85;6.05;;;;;;;15.20;60.01;100473.19;4489127;31;20104;-96
2022/10/26 18:58:09;;;;;;;15.63;8.00;;;;;;;15.42;60.02;100481.06;4497729;31;20108;-96
2022/10/26 19:00:38;;;;;;;12.88;7.10;;;;;;;15.71;60.04;100477.28;4484637;31;20072;-93
2022/10/26 19:03:05;;;;;;;15.23;7.50;;;;;;;16.01;60.05;100476.88;4482382;32;20089;-94
2022/10/26 19:05:32;;;;;;;23.65;10.20;;;;;;;15.86;60.04;100487.16;4490960;32;20108;-96
2022/10/26 19:07:58;;;;;;;17.17;8.80;;;;;;;15.98;60.04;100491.00;4511390;31;20130;-94
2022/10/26 19:10:23;;;;;;;12.82;6.70;;;;;;;15.96;60.05;100491.06;4484644;32;20110;-92
2022/10/26 19:12:48;;;;;;;12.57;7.22;;;;;;;16.11;60.05;100502.72;4484481;31;20135;-94
2022/10/26 19:15:14;;;;;;;13.45;6.70;;;;;;;16.08;60.05;100508.06;4489716;31;21351;-94
2022/10/26 19:17:39;;;;;;;11.75;6.00;;;;;;;15.89;60.04;100515.03;4487344;31;20170;-93
2022/10/26 19:20:05;;;;;;;12.75;6.68;;;;;;;16.10;60.05;100516.75;4484413;32;20188;-94
2022/10/26 19:22:30;;;;;;;18.70;10.10;;;;;;;16.03;60.05;100525.78;4507002;31;20084;-95
2022/10/26 19:24:56;;;;;;;18.42;9.15;;;;;;;15.80;60.04;100523.28;4475264;31;20141;-94
2022/10/26 19:27:22;;;;;;;16.35;9.05;;;;;;;15.84;60.04;100532.72;4493354;31;20147;-93
2022/10/26 19:29:48;;;;;;;14.48;7.57;;;;;;;15.88;60.04;100536.97;4485455;31;20452;-96
2022/10/26 19:32:13;;;;;;;16.50;7.80;;;;;;;15.90;60.04;100532.50;4486145;31;20138;-95
2022/10/26 19:34:38;;;;;;;18.23;9.02;;;;;;;16.04;60.05;100547.66;4481783;32;20140;-94
2022/10/26 19:37:04;;;;;;;13.55;8.00;;;;;;;15.82;60.04;100542.44;4497227;31;20159;-95
2022/10/26 19:39:29;;;;;;;13.82;8.50;;;;;;;15.77;60.03;100547.88;4512752;31;20109;-95
2022/10/26 19:41:55;;;;;;;14.77;8.82;;;;;;;15.77;60.04;100554.91;4485894;31;20195;-93
2022/10/26 19:44:21;;;;;;;17.08;8.70;;;;;;;15.79;60.04;100547.81;4483478;31;20112;-95
2022/10/26 19:46:47;;;;;;;14.43;8.60;;;;;;;15.68;60.03;100547.41;4483658;31;20112;-95
2022/10/26 19:49:12;;;;;;;17.73;8.85;;;;;;;15.73;60.03;100553.31;4485442;31;20091;-95
2022/10/26 19:51:37;;;;;;;17.65;9.68;;;;;;;15.70;60.04;100559.56;4512021;31;20127;-95
2022/10/26 19:54:05;;;;;;;15.75;9.10;;;;;;;15.62;60.02;100562.50;4482000;32;20440;-93
2022/10/26 19:56:31;;;;;;;19.77;9.35;;;;;;;15.82;60.04;100564.28;4479472;31;20130;-94
2022/10/26 19:58:57;;;;;;;16.90;9.55;;;;;;;15.81;60.04;100566.97;4487475;31;20145;-96
2022/10/26 20:01:23;;;;;;;13.93;8.98;;;;;;;15.74;60.04;100570.78;4479510;32;20108;-96
2022/10/26 20:03:48;;;;;;;12.43;7.78;;;;;;;15.79;60.04;100576.69;4487381;32;20117;-96
2022/10/26 20:06:17;;;;;;;12.73;7.95;;;;;;;15.83;60.04;100575.66;4473810;31;20155;-95
2022/10/26 20:08:43;;;;;;;14.02;8.80;;;;;;;15.82;60.04;100581.81;4490912;31;20060;-96
2022/10/26 20:11:09;;;;;;;16.87;8.35;;;;;;;16.03;60.05;100582.72;4475604;31;20101;-96
2022/10/26 20:13:36;;;;;;;13.35;8.30;;;;;;;15.83;60.04;100583.53;4472044;31;20081;-95
2022/10/26 20:16:01;;;;;;;11.45;7.47;;;;;;;15.87;60.05;100580.75;4474830;31;20799;-96
2022/10/26 20:18:27;;;;;;;15.40;7.10;;;;;;;15.74;60.04;100582.13;4487700;31;20131;-95
2022/10/26 20:20:54;;;;;;;15.52;7.07;;;;;;;15.86;60.04;100578.19;4475337;32;20160;-96
2022/10/26 20:23:20;;;;;;;15.57;6.87;;;;;;;15.81;60.04;100582.72;4472305;31;20120;-93
2022/10/26 20:25:46;;;;;;;9.90;6.90;;;;;;;15.66;60.03;100589.47;4487728;31;20102;-92
2022/10/26 20:28:12;;;;;;;14.50;7.62;;;;;;;15.55;60.02;100587.22;4484244;31;20100;-93
2022/10/26 20:30:37;;;;;;;14.80;7.75;;;;;;;15.44;60.02;100599.91;4472130;32;20346;-94
2022/10/26 20:33:03;;;;;;;14.85;7.20;;;;;;;15.28;60.01;100604.88;4463716;31;20108;-93
2022/10/26 20:35:29;;;;;;;14.45;7.90;;;;;;;15.40;60.02;100603.56;4470205;32;20157;-93
2022/10/26 20:38:15;;;;;;;13.10;7.78;;;;;;;15.41;60.02;100601.81;4469531;31;20131;-93
2022/10/26 20:40:41;;;;;;;15.38;7.97;;;;;;;15.52;60.02;100594.34;4486376;32;20113;-94
2022/10/26 20:43:11;;;;;;;10.88;6.78;;;;;;;15.51;60.02;100596.13;4466628;31;20113;-93
2022/10/26 20:45:36;;;;;;;15.70;8.23;;;;;;;15.48;60.03;100609.38;4463274;31;20111;-94
2022/10/26 20:48:02;;;;;;;15.25;8.57;;;;;;;15.54;60.02;100596.00;4488206;31;20444;-95
2022/10/26 20:50:28;;;;;;;16.30;8.52;;;;;;;15.52;60.02;100597.84;4461425;32;20100;-94
2022/10/26 20:52:53;;;;;;;18.90;10.73;;;;;;;15.35;60.02;100602.87;4477808;32;20135;-95
2022/10/26 20:55:39;;;;;;;16.52;9.07;;;;;;;15.31;60.01;100601.28;4496262;31;20115;-92
2022/10/26 20:58:21;;;;;;;13.70;8.90;;;;;;;15.37;60.01;100603.66;4478757;31;20122;-93
2022/10/26 21:00:51;;;;;;;16.17;9.95;;;;;;;15.38;60.02;100612.38;4472553;32;20664;-92
2022/10/26 21:03:17;;;;;;;14.40;8.90;;;;;;;15.43;60.02;100610.47;4468689;31;20116;-95
2022/10/26 21:05:44;;;;;;;13.00;7.85;;;;;;;15.36;60.02;100622.94;4472356;32;20135;-94
2022/10/26 21:08:10;;;;;;;14.45;8.68;;;;;;;15.48;60.02;100617.25;4484337;32;20505;-94
2022/10/26 21:10:35;;;;;;;16.90;8.65;;;;;;;15.09;59.99;100622.19;4479454;32;20129;-93
2022/10/26 21:13:00;;;;;;;15.05;8.70;;;;;;;14.94;60.00;100623.63;4499442;31;20135;-93
2022/10/26 21:15:26;;;;;;;15.68;9.45;;;;;;;14.98;59.99;100621.75;4467095;32;20174;-93
2022/10/26 21:17:51;;;;;;;17.30;10.85;;;;;;;14.85;59.98;100617.84;4470285;31;20131;-94
2022/10/26 21:21:05;;;;;;;;;;;;;;;;;;;;;
2022/10/26 21:23:31;;;;;;;16.52;9.25;;;;;;;14.85;59.98;100615.22;4485406;31;35409;-94
2022/10/26 21:25:59;;;;;;;16.30;9.90;;;;;;;15.03;60.00;100610.19;4468995;31;20799;-93
2022/10/26 21:28:26;;;;;;;18.12;10.25;;;;;;;14.92;59.99;100614.13;4472253;32;20088;-93
2022/10/26 21:30:51;;;;;;;16.52;9.25;;;;;;;14.92;59.99;100614.97;4464359;32;20139;-95
2022/10/26 21:33:16;;;;;;;18.48;9.60;;;;;;;14.92;59.99;100609.72;4471691;31;20440;-94
2022/10/26 21:38:49;;;;;;;20.42;11.85;;;;;;;14.87;60.00;100616.03;4497010;31;20071;-94
2022/10/26 21:41:34;;;;;;;22.83;12.55;;;;;;;15.05;60.00;100613.59;4489284;31;20147;-94
2022/10/26 21:44:01;;;;;;;23.08;12.48;;;;;;;14.98;59.99;100611.25;4461175;32;20155;-93
2022/10/26 21:46:26;;;;;;;26.90;12.82;;;;;;;14.90;59.99;100614.13;4481171;31;20108;-92
2022/10/26 21:48:52;;;;;;;22.80;12.93;;;;;;;14.83;59.99;100615.28;4463230;31;20080;-94
2022/10/26 21:51:19;;;;;;;21.48;13.48;;;;;;;14.76;59.98;100623.44;4467938;32;20142;-92
2022/10/26 21:53:44;;;;;;;23.67;13.70;;;;;;;14.71;59.98;100618.34;4469848;31;20518;-94
2022/10/26 21:56:15;;;;;;;21.40;12.80;;;;;;;14.77;59.98;100619.91;4461475;32;20104;-94
2022/10/26 21:58:40;;;;;;;25.02;13.07;;;;;;;14.81;59.98;100622.34;4480559;31;20147;-93
2022/10/26 22:01:10;;;;;;;22.87;12.23;;;;;;;14.70;59.97;100616.66;4473917;31;20489;-96
2022/10/26 22:03:36;;;;;;;21.23;12.18;;;;;;;14.73;59.98;100621.78;4473056;31;20220;-93
2022/10/26 22:06:08;;;;;;;23.08;13.30;;;;;;;14.76;59.98;100613.78;4487352;31;20437;-93
2022/10/26 22:08:34;;;;;;;18.00;11.23;;;;;;;14.87;59.99;100613.41;4467844;32;20053;-94
2022/10/26 22:11:11;;;;;;;20.12;11.55;;;;;;;14.89;59.99;100607.19;4459086;31;20100;-94
2022/10/26 22:13:36;;;;;;;21.48;13.07;;;;;;;14.79;59.99;100611.06;4488136;31;20120;-94
2022/10/26 22:19:43;;;;;;;22.62;12.27;;;;;;;14.87;60.00;100613.41;4404846;32;20094;-94
2022/10/26 22:22:08;;;;;;;20.65;11.93;;;;;;;14.85;59.99;100617.84;4461388;32;20135;-95
2022/10/26 22:24:33;;;;;;;22.25;12.98;;;;;;;14.78;59.98;100624.22;4472320;32;20378;-93
2022/10/26 22:26:59;;;;;;;20.40;12.10;;;;;;;14.84;59.98;100618.75;4445735;32;20160;-94
2022/10/26 22:29:24;;;;;;;23.00;12.85;;;;;;;14.92;59.99;100616.75;4459365;32;20418;-93
2022/10/26 22:31:50;;;;;;;21.17;12.85;;;;;;;14.86;59.99;100615.16;4484466;32;28892;-94
2022/10/26 22:34:15;;;;;;;22.48;12.75;;;;;;;14.84;59.99;100614.38;4458678;32;20177;-94
2022/10/26 22:36:41;;;;;;;23.42;12.95;;;;;;;14.71;59.98;100618.34;4459479;32;20138;-93
2022/10/26 22:39:06;;;;;;;24.10;13.18;;;;;;;14.80;59.99;100628.50;4472182;32;20169;-94
2022/10/26 22:41:32;;;;;;;21.70;12.80;;;;;;;14.89;59.99;100630.78;4458970;32;20116;-93
2022/10/26 22:43:57;;;;;;;24.05;13.57;;;;;;;14.93;59.99;100629.78;4471558;32;20104;-93
2022/10/26 22:46:23;;;;;;;22.73;13.00;;;;;;;14.80;59.99;100633.75;4458924;32;20152;-94
2022/10/26 22:48:56;;;;;;;20.33;12.80;;;;;;;14.92;59.99;100637.72;4471655;32;20107;-93
2022/10/26 22:51:23;;;;;;;22.73;12.55;;;;;;;14.83;59.99;100643.25;4459322;32;20096;-93
2022/10/26 22:53:52;;;;;;;23.62;12.45;;;;;;;14.78;59.98;100639.94;4458644;32;20138;-92
2022/10/26 22:56:18;;;;;;;23.87;13.30;;;;;;;14.76;59.98;100647.00;4472298;32;20177;-94
2022/10/26 22:58:43;;;;;;;21.60;12.57;;;;;;;14.79;59.99;100637.28;4458863;32;20180;-94
2022/10/26 23:01:11;;;;;;;22.73;12.30;;;;;;;14.83;59.98;100643.25;4459726;32;20108;-94
2022/10/26 23:03:36;;;;;;;20.35;11.48;;;;;;;14.81;59.99;100647.69;4481866;32;20076;-94
2022/10/26 23:06:02;;;;;;;22.65;12.20;;;;;;;14.85;59.98;100638.81;4460360;32;20134;-94
2022/10/26 23:08:27;;;;;;;24.92;13.90;;;;;;;14.81;59.99;100639.84;4457976;32;20107;-90
2022/10/26 23:10:56;;;;;;;24.12;14.80;;;;;;;15.11;60.01;100640.50;4458008;32;20084;-91
2022/10/26 23:13:22;;;;;;;24.98;13.88;;;;;;;15.06;60.00;100640.66;4458399;32;20104;-91
2022/10/26 23:15:47;;;;;;;25.27;14.30;;;;;;;14.90;59.99;100650.00;4471131;32;20125;-92
2022/10/26 23:18:12;;;;;;;25.00;13.95;;;;;;;14.93;59.99;100648.13;4457830;32;20146;-89
2022/10/26 23:20:38;;;;;;;24.30;14.35;;;;;;;14.95;60.00;100653.31;4471049;32;20727;-89
2022/10/26 23:23:03;;;;;;;23.15;13.48;;;;;;;14.99;60.00;100650.53;4484684;31;29999;-90
2022/10/26 23:25:29;;;;;;;24.00;13.62;;;;;;;14.97;60.00;100652.34;4484140;32;20139;-89
2022/10/26 23:27:54;;;;;;;24.08;13.85;;;;;;;15.05;60.00;100646.81;4470908;32;20108;-89
2022/10/26 23:30:19;;;;;;;23.90;13.98;;;;;;;15.05;60.00;100652.06;4485083;31;20121;-89
2022/10/26 23:32:45;;;;;;;24.52;13.30;;;;;;;14.94;59.99;100655.09;4486189;32;20116;-90
2022/10/26 23:35:10;;;;;;;22.80;13.90;;;;;;;14.71;59.98;100657.66;4472336;32;27289;-89
2022/10/26 23:37:35;;;;;;;22.60;13.25;;;;;;;14.79;59.98;100654.75;4485610;32;22659;-89
2022/10/26 23:40:01;;;;;;;21.90;13.18;;;;;;;14.84;59.98;100671.19;4486674;31;24548;-89
2022/10/26 23:42:26;;;;;;;24.73;13.02;;;;;;;14.74;59.98;100671.50;4486146;32;20121;-89
2022/10/26 23:44:52;;;;;;;25.52;14.27;;;;;;;14.58;59.97;100665.06;4485532;32;20146;-90
2022/10/26 23:47:17;;;;;;;25.70;13.77;;;;;;;14.59;59.98;100665.94;4485919;32;20152;-89
2022/10/26 23:49:42;;;;;;;26.37;13.88;;;;;;;14.65;59.98;100656.09;4472690;32;20096;-89
2022/10/26 23:52:08;;;;;;;26.75;14.20;;;;;;;14.64;59.98;100659.62;4486015;32;20150;-89
2022/10/26 23:54:33;;;;;;;25.85;13.85;;;;;;;14.71;59.98;100657.66;4472172;32;23921;-89
2022/10/26 23:56:59;;;;;;;22.00;12.93;;;;;;;14.75;59.98;100661.88;4485244;32;27621;-89
2022/10/26 23:59:24;;;;;;;25.35;14.40;;;;;;;14.58;59.98;100664.22;4486854;31;20080;-89
